createdAt,value
2022-08-10T00:00:16.625Z,76.65
2022-08-10T00:03:37.835Z,76.38
2022-08-10T00:06:40.261Z,76.75
2022-08-10T00:09:50.626Z,76.22
2022-08-10T00:12:55.353Z,76.25
2022-08-10T00:15:57.725Z,76.95
2022-08-10T00:19:00.487Z,77.59
2022-08-10T00:22:02.595Z,78.15
2022-08-10T00:25:05.911Z,77.33
2022-08-10T00:28:08.531Z,77.18
2022-08-10T00:31:10.906Z,77.06
2022-08-10T00:34:13.171Z,77.66
2022-08-10T00:37:17.383Z,77.19
2022-08-10T00:40:19.624Z,77.10
2022-08-10T00:43:40.549Z,77.52
2022-08-10T00:46:42.653Z,77.32
2022-08-10T00:49:45.120Z,78.19
2022-08-10T00:52:47.610Z,78.44
2022-08-10T00:57:14.520Z,78.47
2022-08-10T00:59:11.982Z,77.91
2022-08-10T01:02:14.402Z,77.68
2022-08-10T01:05:16.643Z,77.87
2022-08-10T01:08:30.543Z,77.75
2022-08-10T01:12:34.236Z,76.95
2022-08-10T01:15:08.718Z,77.85
2022-08-10T01:18:29.629Z,78.59
2022-08-10T01:22:09.354Z,78.21
2022-08-10T01:25:11.680Z,78.57
2022-08-10T01:28:51.700Z,77.73
2022-08-10T01:31:57.053Z,77.91
2022-08-10T01:35:11.001Z,78.13
2022-08-10T01:38:40.803Z,78.12
2022-08-10T01:41:46.595Z,77.56
2022-08-10T01:44:56.011Z,78.14
2022-08-10T01:48:18.902Z,78.04
2022-08-10T01:51:32.740Z,78.41
2022-08-10T01:54:35.532Z,78.70
2022-08-10T01:57:39.374Z,78.69
2022-08-10T02:00:43.361Z,77.93
2022-08-10T02:04:03.684Z,78.42
2022-08-10T02:07:11.328Z,78.62
2022-08-10T02:10:15.519Z,78.53
2022-08-10T02:13:19.085Z,78.37
2022-08-10T02:16:21.745Z,78.77
2022-08-10T02:19:25.229Z,79.41
2022-08-10T02:22:45.897Z,78.99
2022-08-10T02:25:49.735Z,78.65
2022-08-10T02:28:52.865Z,78.75
2022-08-10T02:31:56.407Z,79.14
2022-08-10T02:35:00.718Z,79.51
2022-08-10T02:38:06.605Z,79.41
2022-08-10T02:45:02.830Z,79.36
2022-08-10T02:45:21.566Z,79.61
2022-08-10T02:48:24.348Z,79.60
2022-08-10T02:52:07.022Z,79.03
2022-08-10T02:55:27.272Z,78.73
2022-08-10T02:58:42.489Z,79.25
2022-08-10T03:01:49.444Z,78.73
2022-08-10T03:04:58.378Z,79.87
2022-08-10T03:08:03.488Z,79.79
2022-08-10T03:11:06.750Z,78.91
2022-08-10T03:14:10.187Z,79.90
2022-08-10T03:17:12.879Z,79.27
2022-08-10T03:20:37.309Z,79.58
2022-08-10T03:23:38.423Z,80.08
2022-08-10T03:26:40.937Z,80.43
2022-08-10T03:30:31.929Z,79.70
2022-08-10T03:33:07.808Z,80.11
2022-08-10T03:36:40.744Z,80.54
2022-08-10T03:39:32.913Z,80.63
2022-08-10T03:42:37.525Z,82.03
2022-08-10T03:45:55.470Z,81.14
2022-08-10T03:49:02.184Z,81.85
2022-08-10T03:52:06.648Z,82.19
2022-08-10T03:55:09.753Z,81.39
2022-08-10T03:58:12.502Z,80.98
2022-08-10T04:01:15.923Z,81.93
2022-08-10T04:04:23.762Z,82.44
2022-08-10T04:07:26.961Z,82.99
2022-08-10T04:10:29.693Z,82.93
2022-08-10T04:13:32.105Z,83.51
2022-08-10T04:16:34.297Z,83.86
2022-08-10T04:19:46.829Z,83.70
2022-08-10T04:22:51.945Z,84.07
2022-08-10T04:25:54.441Z,83.63
2022-08-10T04:28:56.611Z,84.56
2022-08-10T04:31:59.885Z,84.85
2022-08-10T04:35:04.280Z,85.67
2022-08-10T04:38:07.429Z,85.25
2022-08-10T04:41:10.277Z,87.28
2022-08-10T04:44:12.764Z,87.09
2022-08-10T04:47:16.893Z,88.96
2022-08-10T04:50:37.484Z,89.79
2022-08-10T04:54:04.596Z,89.03
2022-08-10T04:57:03.341Z,89.66
2022-08-10T05:00:08.752Z,91.89
2022-08-10T05:03:21.716Z,93.15
2022-08-10T05:06:25.236Z,94.92
2022-08-10T05:09:27.537Z,96.52
2022-08-10T05:12:29.809Z,99.28
2022-08-10T05:15:32.184Z,98.26
2022-08-10T05:18:34.721Z,100.00
2022-08-10T05:21:56.406Z,99.84
2022-08-10T05:24:59.944Z,98.24
2022-08-10T05:28:06.510Z,97.32
2022-08-10T05:31:09.057Z,97.74
2022-08-10T05:34:20.549Z,97.55
2022-08-10T05:38:08.963Z,97.18
2022-08-10T05:40:48.542Z,95.86
2022-08-10T05:43:51.921Z,94.75
2022-08-10T05:46:54.252Z,95.88
2022-08-10T05:49:56.730Z,94.58
2022-08-10T05:53:02.591Z,94.58
2022-08-10T05:56:21.511Z,93.09
2022-08-10T06:00:29.387Z,91.94
2022-08-10T06:02:54.900Z,88.18
2022-08-10T06:05:58.778Z,86.46
2022-08-10T06:09:01.457Z,83.15
2022-08-10T06:12:27.859Z,80.06
2022-08-10T06:15:50.274Z,79.66
2022-08-10T06:18:51.367Z,77.02
2022-08-10T06:22:01.344Z,73.90
2022-08-10T06:28:28.956Z,71.53
2022-08-10T06:31:48.548Z,70.68
2022-08-10T06:34:55.036Z,68.87
2022-08-10T06:37:59.781Z,66.57
2022-08-10T06:41:08.392Z,64.12
2022-08-10T06:44:16.572Z,62.29
2022-08-10T06:47:22.917Z,61.80
2022-08-10T06:50:55.899Z,61.46
2022-08-10T06:54:07.933Z,60.61
2022-08-10T06:57:18.854Z,58.41
2022-08-10T07:00:21.218Z,59.23
2022-08-10T07:03:34.419Z,57.75
2022-08-10T07:06:37.524Z,59.27
2022-08-10T07:09:40.324Z,57.05
2022-08-10T07:12:43.603Z,55.89
2022-08-10T07:15:59.797Z,54.13
2022-08-10T07:19:03.569Z,52.36
2022-08-10T07:22:06.718Z,54.22
2022-08-10T07:25:10.275Z,56.44
2022-08-10T07:28:13.892Z,54.30
2022-08-10T07:31:55.040Z,54.49
2022-08-10T07:34:41.695Z,54.30
2022-08-10T07:37:49.506Z,53.72
2022-08-10T07:40:53.644Z,53.63
2022-08-10T07:43:57.285Z,49.26
2022-08-10T07:47:03.008Z,49.04
2022-08-10T07:50:08.350Z,50.17
2022-08-10T07:53:13.877Z,48.66
2022-08-10T07:56:45.479Z,48.60
2022-08-10T07:59:45.077Z,51.58
2022-08-10T08:02:56.044Z,50.96
2022-08-10T08:06:03.282Z,50.11
2022-08-10T08:09:11.772Z,48.33
2022-08-10T08:12:15.864Z,49.82
2022-08-10T08:16:20.344Z,52.38
2022-08-10T08:19:03.916Z,51.37
2022-08-10T08:24:04.410Z,50.17
2022-08-10T08:25:30.749Z,48.27
2022-08-10T08:28:34.548Z,48.34
2022-08-10T08:32:01.168Z,47.90
2022-08-10T08:35:06.688Z,49.31
2022-08-10T08:38:34.012Z,49.53
2022-08-10T08:41:50.565Z,49.54
2022-08-10T08:45:15.408Z,50.46
2022-08-10T08:48:20.774Z,51.47
2022-08-10T08:52:09.893Z,52.55
2022-08-10T08:56:03.921Z,51.39
2022-08-10T08:59:00.881Z,46.80
2022-08-10T09:02:21.512Z,46.49
2022-08-10T09:05:58.454Z,48.04
2022-08-10T09:09:15.642Z,52.53
2022-08-10T09:12:49.063Z,49.73
2022-08-10T09:16:13.993Z,47.48
2022-08-10T09:19:38.619Z,47.36
2022-08-10T09:22:47.435Z,46.05
2022-08-10T09:25:56.080Z,45.43
2022-08-10T09:29:12.354Z,45.24
2022-08-10T09:36:13.860Z,46.91
2022-08-10T09:36:21.608Z,46.10
2022-08-10T09:40:56.067Z,45.90
2022-08-10T09:43:32.156Z,43.50
2022-08-10T09:46:59.408Z,45.26
2022-08-10T09:50:10.056Z,47.01
2022-08-10T09:53:40.519Z,45.86
2022-08-10T09:57:41.226Z,47.01
2022-08-10T10:00:46.970Z,48.76
2022-08-10T10:04:34.316Z,48.50
2022-08-10T10:07:40.450Z,45.68
2022-08-10T10:11:08.917Z,46.00
2022-08-10T10:14:17.078Z,44.68
2022-08-10T10:17:27.103Z,42.59
2022-08-10T10:20:44.826Z,41.46
2022-08-10T10:24:21.619Z,40.99
2022-08-10T10:27:48.210Z,41.38
2022-08-10T10:31:32.733Z,40.55
2022-08-10T10:34:46.495Z,40.55
2022-08-10T10:38:01.151Z,42.27
2022-08-10T10:42:03.327Z,40.67
2022-08-10T10:45:18.643Z,39.19
2022-08-10T10:48:33.063Z,40.21
2022-08-10T10:51:45.491Z,40.79
2022-08-10T10:54:55.851Z,44.66
2022-08-10T10:58:20.321Z,40.25
2022-08-10T11:01:44.729Z,36.30
2022-08-10T11:05:29.197Z,39.03
2022-08-10T11:08:38.635Z,38.21
2022-08-10T11:12:00.669Z,37.90
2022-08-10T11:15:28.872Z,36.91
2022-08-10T11:19:08.739Z,35.68
2022-08-10T11:22:30.758Z,37.94
2022-08-10T11:25:43.007Z,39.36
2022-08-10T11:28:51.985Z,37.97
2022-08-10T11:32:28.819Z,36.17
2022-08-10T11:35:48.775Z,35.81
2022-08-10T11:39:13.433Z,34.83
2022-08-10T11:42:42.795Z,37.21
2022-08-10T11:46:07.677Z,34.38
2022-08-10T11:49:22.115Z,37.92
2022-08-10T11:52:52.441Z,38.48
2022-08-10T11:55:57.376Z,37.86
2022-08-10T11:59:18.332Z,37.48
2022-08-10T12:02:37.456Z,38.60
2022-08-10T12:05:51.955Z,39.32
2022-08-10T12:10:11.122Z,39.01
2022-08-10T12:12:21.028Z,38.09
2022-08-10T12:15:29.830Z,39.05
2022-08-10T12:18:50.714Z,37.45
2022-08-10T12:22:05.661Z,40.97
2022-08-10T12:25:54.919Z,42.65
2022-08-10T12:29:03.732Z,42.74
2022-08-10T12:32:25.486Z,40.51
2022-08-10T12:35:33.242Z,39.39
2022-08-10T12:38:40.156Z,39.68
2022-08-10T12:41:50.533Z,37.28
2022-08-10T12:45:03.148Z,34.86
2022-08-10T12:48:15.095Z,32.86
2022-08-10T12:51:38.849Z,34.75
2022-08-10T12:54:50.782Z,31.69
2022-08-10T12:57:56.005Z,34.03
2022-08-10T13:01:17.773Z,33.63
2022-08-10T13:04:28.068Z,34.21
2022-08-10T13:08:24.933Z,35.41
2022-08-10T13:11:02.224Z,31.07
2022-08-10T13:14:11.078Z,33.78
2022-08-10T13:17:19.788Z,31.11
2022-08-10T13:20:30.419Z,31.30
2022-08-10T13:23:38.442Z,33.07
2022-08-10T13:27:26.057Z,31.58
2022-08-10T13:30:13.503Z,30.75
2022-08-10T13:34:35.827Z,35.52
2022-08-10T13:36:42.193Z,37.59
2022-08-10T13:39:58.829Z,37.92
2022-08-10T13:43:06.997Z,37.90
2022-08-10T13:46:22.661Z,39.59
2022-08-10T13:49:29.622Z,39.39
2022-08-10T13:52:33.462Z,39.45
2022-08-10T13:55:54.538Z,36.96
2022-08-10T13:58:59.320Z,37.86
2022-08-10T14:02:03.385Z,38.71
2022-08-10T14:05:07.428Z,39.63
2022-08-10T14:08:15.177Z,39.30
2022-08-10T14:11:19.109Z,39.43
2022-08-10T14:14:22.294Z,40.45
2022-08-10T14:17:25.980Z,38.53
2022-08-10T14:20:29.306Z,38.84
2022-08-10T14:23:32.364Z,37.68
2022-08-10T14:26:34.628Z,36.97
2022-08-10T14:29:43.494Z,42.03
2022-08-10T14:32:48.510Z,39.62
2022-08-10T14:36:19.217Z,38.96
2022-08-10T14:39:25.997Z,40.40
2022-08-10T14:42:32.459Z,41.49
2022-08-10T14:45:36.628Z,41.60
2022-08-10T14:48:45.348Z,40.18
2022-08-10T14:51:50.110Z,41.75
2022-08-10T14:54:55.182Z,41.11
2022-08-10T14:58:19.336Z,38.81
2022-08-10T15:01:21.996Z,38.66
2022-08-10T15:04:26.810Z,38.52
2022-08-10T15:07:33.396Z,39.82
2022-08-10T15:10:36.346Z,38.25
2022-08-10T15:13:44.680Z,39.65
2022-08-10T15:17:08.452Z,39.75
2022-08-10T15:20:20.686Z,40.01
2022-08-10T15:23:30.724Z,39.81
2022-08-10T15:26:35.847Z,39.69
2022-08-10T15:29:57.711Z,40.19
2022-08-10T15:34:02.579Z,38.79
2022-08-10T15:37:39.966Z,38.68
2022-08-10T15:40:35.830Z,38.71
2022-08-10T15:43:44.514Z,39.01
2022-08-10T15:46:53.166Z,39.44
2022-08-10T15:50:07.766Z,37.83
2022-08-10T15:53:16.462Z,39.42
2022-08-10T15:56:28.347Z,39.65
2022-08-10T16:00:08.979Z,39.38
2022-08-10T16:03:17.363Z,39.95
2022-08-10T16:06:28.481Z,38.82
2022-08-10T16:10:23.093Z,42.51
2022-08-10T16:13:59.787Z,44.52
2022-08-10T16:16:36.306Z,44.40
2022-08-10T16:19:50.136Z,44.95
2022-08-10T16:22:56.203Z,43.12
2022-08-10T16:26:05.108Z,43.62
2022-08-10T16:29:20.538Z,43.28
2022-08-10T16:32:23.580Z,43.09
2022-08-10T16:35:25.762Z,43.96
2022-08-10T16:38:28.625Z,44.60
2022-08-10T16:42:02.882Z,44.13
2022-08-10T16:45:02.821Z,45.07
2022-08-10T16:48:06.726Z,45.31
2022-08-10T16:51:14.111Z,45.62
2022-08-10T16:54:26.286Z,45.41
2022-08-10T16:57:30.062Z,46.14
2022-08-10T17:00:32.833Z,46.91
2022-08-10T17:04:06.172Z,46.46
2022-08-10T17:07:08.191Z,46.78
2022-08-10T17:10:15.183Z,46.84
2022-08-10T17:13:21.184Z,47.07
2022-08-10T17:16:24.550Z,47.73
2022-08-10T17:19:27.819Z,47.58
2022-08-10T17:22:35.574Z,48.69
2022-08-10T17:25:48.586Z,48.26
2022-08-10T17:28:56.194Z,49.26
2022-08-10T17:32:01.091Z,50.04
2022-08-10T17:35:09.278Z,49.99
2022-08-10T17:38:24.271Z,50.72
2022-08-10T17:41:32.726Z,51.39
2022-08-10T17:44:36.842Z,51.73
2022-08-10T17:47:57.933Z,52.20
2022-08-10T17:51:00.750Z,51.80
2022-08-10T17:54:09.149Z,51.54
2022-08-10T17:57:18.588Z,52.28
2022-08-10T18:00:22.278Z,52.43
2022-08-10T18:03:27.855Z,53.08
2022-08-10T18:06:30.752Z,54.38
2022-08-10T18:09:46.519Z,55.54
2022-08-10T18:12:54.580Z,55.49
2022-08-10T18:15:57.239Z,55.36
2022-08-10T18:19:07.680Z,56.39
2022-08-10T18:22:12.129Z,56.20
2022-08-10T18:25:20.494Z,55.59
2022-08-10T18:31:25.804Z,56.13
2022-08-10T18:34:30.418Z,56.36
2022-08-10T18:37:33.539Z,56.79
2022-08-10T18:40:38.541Z,56.17
2022-08-10T18:44:07.145Z,56.05
2022-08-10T18:47:30.533Z,57.10
2022-08-10T18:50:37.761Z,56.64
2022-08-10T18:53:48.624Z,57.00
2022-08-10T18:56:59.361Z,57.45
2022-08-10T19:00:08.799Z,57.91
2022-08-10T19:03:26.993Z,57.43
2022-08-10T19:06:51.194Z,58.08
2022-08-10T19:10:12.212Z,58.37
2022-08-10T19:13:34.406Z,58.01
2022-08-10T19:16:58.722Z,58.31
2022-08-10T19:20:13.072Z,58.48
2022-08-10T19:23:52.839Z,58.22
2022-08-10T19:27:08.595Z,59.87
2022-08-10T19:30:16.251Z,60.15
2022-08-10T19:33:42.703Z,60.02
2022-08-10T19:37:05.345Z,60.28
2022-08-10T19:40:44.434Z,61.18
2022-08-10T19:44:03.666Z,61.72
2022-08-10T19:47:12.283Z,61.33
2022-08-10T19:50:19.644Z,61.41
2022-08-10T19:53:46.502Z,61.87
2022-08-10T19:57:04.280Z,62.36
2022-08-10T20:00:18.491Z,62.01
2022-08-10T20:03:34.490Z,62.85
2022-08-10T20:06:48.237Z,62.82
2022-08-10T20:10:00.756Z,63.71
2022-08-10T20:13:10.836Z,63.86
2022-08-10T20:16:22.975Z,63.90
2022-08-10T20:20:06.589Z,63.92
2022-08-10T20:23:14.218Z,64.56
2022-08-10T20:26:33.336Z,65.00
2022-08-10T20:29:57.299Z,65.02
2022-08-10T20:33:28.397Z,65.17
2022-08-10T20:36:31.876Z,65.94
2022-08-10T20:39:39.389Z,66.00
2022-08-10T20:42:50.409Z,66.49
2022-08-10T20:46:15.203Z,66.66
2022-08-10T20:49:39.754Z,66.77
2022-08-10T20:52:44.278Z,67.02
2022-08-10T20:55:55.823Z,67.32
2022-08-10T20:59:08.732Z,67.08
2022-08-10T21:02:29.812Z,67.11
2022-08-10T21:06:09.153Z,67.05
2022-08-10T21:09:37.443Z,66.75
2022-08-10T21:12:49.953Z,67.12
2022-08-10T21:15:52.691Z,67.43
2022-08-10T21:19:27.789Z,67.42
2022-08-10T21:22:42.448Z,68.10
2022-08-10T21:26:07.432Z,67.91
2022-08-10T21:29:41.591Z,67.96
2022-08-10T21:33:21.014Z,68.23
2022-08-10T21:36:32.293Z,69.01
2022-08-10T21:39:58.279Z,68.88
2022-08-10T21:43:44.815Z,68.96
2022-08-10T21:47:39.997Z,68.62
2022-08-10T21:51:05.907Z,69.24
2022-08-10T21:54:35.478Z,69.30
2022-08-10T21:58:16.161Z,69.40
2022-08-10T22:01:51.649Z,70.64
2022-08-10T22:05:17.951Z,70.02
2022-08-10T22:08:51.914Z,70.26
2022-08-10T22:12:24.974Z,71.31
2022-08-10T22:16:10.873Z,71.28
2022-08-10T22:19:34.256Z,71.45
2022-08-10T22:23:03.404Z,71.32
2022-08-10T22:27:01.227Z,71.13
2022-08-10T22:30:23.649Z,71.55
2022-08-10T22:34:09.756Z,71.24
2022-08-10T22:38:10.554Z,71.25
2022-08-10T22:41:56.571Z,71.41
2022-08-10T22:45:19.531Z,71.91
2022-08-10T22:48:40.730Z,71.72
2022-08-10T22:52:01.268Z,71.77
2022-08-10T22:55:28.112Z,72.41
2022-08-10T22:58:42.083Z,73.28
2022-08-10T23:02:07.936Z,73.24
2022-08-10T23:05:13.561Z,72.99
2022-08-10T23:08:30.211Z,73.02
2022-08-10T23:11:36.982Z,72.25
2022-08-10T23:14:41.533Z,72.58
2022-08-10T23:18:23.024Z,73.26
2022-08-10T23:22:00.067Z,72.25
2022-08-10T23:25:09.839Z,73.63
2022-08-10T23:28:14.662Z,73.37
2022-08-10T23:32:01.170Z,73.55
2022-08-10T23:34:46.224Z,73.74
2022-08-10T23:38:09.935Z,73.65
2022-08-10T23:41:12.708Z,73.76
2022-08-10T23:44:21.048Z,74.16
2022-08-10T23:47:28.128Z,73.73
2022-08-10T23:50:32.471Z,73.97
2022-08-10T23:53:39.057Z,74.32
2022-08-10T23:56:47.780Z,74.45
2022-08-10T23:59:53.408Z,74.53
